sensor_id;sensor_type;location;lat;lon;timestamp;pressure;altitude;pressure_sealevel;temperature;humidity
18527;BME280;9393;42.158;24.748;2023-03-13T00:02:49;99909.25;;;10.26;41.22
18527;BME280;9393;42.158;24.748;2023-03-13T00:05:58;99910.06;;;10.56;40.49
18527;BME280;9393;42.158;24.748;2023-03-13T00:09:04;99905.38;;;10.41;40.40
18527;BME280;9393;42.158;24.748;2023-03-13T00:12:08;99913.06;;;10.52;40.37
18527;BME280;9393;42.158;24.748;2023-03-13T00:15:13;99901.69;;;10.53;39.96
18527;BME280;9393;42.158;24.748;2023-03-13T00:18:17;99913.72;;;10.14;41.01
18527;BME280;9393;42.158;24.748;2023-03-13T00:21:24;99916.34;;;9.73;41.34
18527;BME280;9393;42.158;24.748;2023-03-13T00:24:29;99914.88;;;10.00;41.32
18527;BME280;9393;42.158;24.748;2023-03-13T00:27:33;99914.69;;;9.92;41.28
18527;BME280;9393;42.158;24.748;2023-03-13T00:30:37;99911.94;;;9.94;41.66
18527;BME280;9393;42.158;24.748;2023-03-13T00:33:43;99912.97;;;10.02;41.43
18527;BME280;9393;42.158;24.748;2023-03-13T00:36:49;99905.75;;;9.85;41.40
18527;BME280;9393;42.158;24.748;2023-03-13T00:39:53;99906.22;;;10.00;41.48
18527;BME280;9393;42.158;24.748;2023-03-13T00:42:57;99909.84;;;10.08;40.98
18527;BME280;9393;42.158;24.748;2023-03-13T00:46:01;99908.41;;;10.16;40.95
18527;BME280;9393;42.158;24.748;2023-03-13T00:49:05;99906.66;;;10.05;41.16
18527;BME280;9393;42.158;24.748;2023-03-13T00:52:11;99901.47;;;10.05;41.18
18527;BME280;9393;42.158;24.748;2023-03-13T00:55:15;99899.72;;;9.64;41.81
18527;BME280;9393;42.158;24.748;2023-03-13T00:58:20;99896.22;;;9.54;41.93
18527;BME280;9393;42.158;24.748;2023-03-13T01:01:26;99895.00;;;9.58;41.67
18527;BME280;9393;42.158;24.748;2023-03-13T01:04:31;99903.56;;;9.49;42.47
18527;BME280;9393;42.158;24.748;2023-03-13T01:07:37;99893.97;;;9.49;42.05
18527;BME280;9393;42.158;24.748;2023-03-13T01:10:41;99896.34;;;9.21;42.98
18527;BME280;9393;42.158;24.748;2023-03-13T01:13:45;99894.81;;;9.18;43.03
18527;BME280;9393;42.158;24.748;2023-03-13T01:16:49;99886.63;;;9.34;42.49
18527;BME280;9393;42.158;24.748;2023-03-13T01:19:54;99891.31;;;9.40;42.51
18527;BME280;9393;42.158;24.748;2023-03-13T01:23:00;99901.25;;;9.35;43.05
18527;BME280;9393;42.158;24.748;2023-03-13T01:26:05;99898.31;;;8.96;43.41
18527;BME280;9393;42.158;24.748;2023-03-13T01:29:09;99905.25;;;9.07;43.47
18527;BME280;9393;42.158;24.748;2023-03-13T01:32:13;99902.56;;;8.54;44.38
18527;BME280;9393;42.158;24.748;2023-03-13T01:35:18;99912.22;;;8.75;43.94
18527;BME280;9393;42.158;24.748;2023-03-13T01:38:24;99912.56;;;8.14;45.39
18527;BME280;9393;42.158;24.748;2023-03-13T01:41:29;99915.44;;;8.45;45.11
18527;BME280;9393;42.158;24.748;2023-03-13T01:44:48;99914.25;;;8.60;44.37
18527;BME280;9393;42.158;24.748;2023-03-13T01:47:53;99918.72;;;8.25;45.33
18527;BME280;9393;42.158;24.748;2023-03-13T01:51:18;99927.97;;;8.29;45.42
18527;BME280;9393;42.158;24.748;2023-03-13T01:54:29;99919.59;;;7.79;46.03
18527;BME280;9393;42.158;24.748;2023-03-13T01:57:36;99922.63;;;7.62;46.77
18527;BME280;9393;42.158;24.748;2023-03-13T02:00:45;99931.38;;;7.61;47.42
18527;BME280;9393;42.158;24.748;2023-03-13T02:03:50;99934.38;;;7.79;46.68
18527;BME280;9393;42.158;24.748;2023-03-13T02:06:57;99946.75;;;7.75;47.15
18527;BME280;9393;42.158;24.748;2023-03-13T02:10:09;99943.66;;;7.70;47.06
18527;BME280;9393;42.158;24.748;2023-03-13T02:13:14;99952.13;;;7.96;46.67
18527;BME280;9393;42.158;24.748;2023-03-13T02:16:20;99957.56;;;7.58;47.36
18527;BME280;9393;42.158;24.748;2023-03-13T02:19:29;99969.66;;;7.81;47.07
18527;BME280;9393;42.158;24.748;2023-03-13T02:22:41;99969.47;;;7.95;47.12
18527;BME280;9393;42.158;24.748;2023-03-13T02:25:50;99977.59;;;7.91;47.07
18527;BME280;9393;42.158;24.748;2023-03-13T02:29:00;99982.91;;;7.89;47.13
18527;BME280;9393;42.158;24.748;2023-03-13T02:32:05;99993.19;;;8.02;46.46
18527;BME280;9393;42.158;24.748;2023-03-13T02:35:11;99991.66;;;8.10;46.46
18527;BME280;9393;42.158;24.748;2023-03-13T02:38:20;99995.56;;;7.70;47.50
18527;BME280;9393;42.158;24.748;2023-03-13T02:41:28;99996.09;;;7.86;46.51
18527;BME280;9393;42.158;24.748;2023-03-13T02:44:37;100003.44;;;7.92;46.86
18527;BME280;9393;42.158;24.748;2023-03-13T02:47:42;100011.38;;;8.02;46.08
18527;BME280;9393;42.158;24.748;2023-03-13T02:50:47;100018.25;;;7.44;47.15
18527;BME280;9393;42.158;24.748;2023-03-13T02:53:54;100022.88;;;7.76;46.63
18527;BME280;9393;42.158;24.748;2023-03-13T02:57:03;100015.34;;;7.60;46.82
18527;BME280;9393;42.158;24.748;2023-03-13T03:00:09;100013.00;;;7.57;46.75
18527;BME280;9393;42.158;24.748;2023-03-13T03:03:15;100023.31;;;7.46;46.95
18527;BME280;9393;42.158;24.748;2023-03-13T03:06:19;100017.44;;;7.31;48.00
18527;BME280;9393;42.158;24.748;2023-03-13T03:09:24;100026.34;;;7.40;47.82
18527;BME280;9393;42.158;24.748;2023-03-13T03:12:33;100026.56;;;7.37;47.19
18527;BME280;9393;42.158;24.748;2023-03-13T03:15:38;100036.66;;;7.52;47.03
18527;BME280;9393;42.158;24.748;2023-03-13T03:18:42;100038.16;;;7.44;47.85
18527;BME280;9393;42.158;24.748;2023-03-13T03:21:46;100044.66;;;7.26;48.14
18527;BME280;9393;42.158;24.748;2023-03-13T03:24:53;100052.63;;;7.35;47.64
18527;BME280;9393;42.158;24.748;2023-03-13T03:28:00;100055.91;;;7.14;48.39
18527;BME280;9393;42.158;24.748;2023-03-13T03:31:04;100070.59;;;7.26;47.78
18527;BME280;9393;42.158;24.748;2023-03-13T03:34:10;100069.53;;;7.41;47.47
18527;BME280;9393;42.158;24.748;2023-03-13T03:37:14;100080.16;;;7.25;47.65
18527;BME280;9393;42.158;24.748;2023-03-13T03:40:18;100085.06;;;6.79;48.97
18527;BME280;9393;42.158;24.748;2023-03-13T03:43:24;100093.03;;;7.27;47.91
18527;BME280;9393;42.158;24.748;2023-03-13T03:46:29;100095.09;;;7.34;47.77
18527;BME280;9393;42.158;24.748;2023-03-13T03:49:34;100099.00;;;7.40;47.33
18527;BME280;9393;42.158;24.748;2023-03-13T03:52:38;100093.00;;;7.63;46.91
18527;BME280;9393;42.158;24.748;2023-03-13T03:55:43;100104.75;;;7.56;47.01
18527;BME280;9393;42.158;24.748;2023-03-13T03:58:49;100101.22;;;7.57;47.01
18527;BME280;9393;42.158;24.748;2023-03-13T04:02:13;100105.25;;;7.37;47.43
18527;BME280;9393;42.158;24.748;2023-03-13T04:05:19;100108.66;;;7.38;47.69
18527;BME280;9393;42.158;24.748;2023-03-13T04:08:23;100113.53;;;7.42;47.68
18527;BME280;9393;42.158;24.748;2023-03-13T04:11:30;100119.53;;;7.43;47.71
18527;BME280;9393;42.158;24.748;2023-03-13T04:14:46;100123.41;;;7.37;48.13
18527;BME280;9393;42.158;24.748;2023-03-13T04:17:51;100133.47;;;7.29;48.25
18527;BME280;9393;42.158;24.748;2023-03-13T04:20:59;100123.19;;;7.28;47.74
18527;BME280;9393;42.158;24.748;2023-03-13T04:24:10;100135.97;;;7.31;47.80
18527;BME280;9393;42.158;24.748;2023-03-13T04:27:16;100134.94;;;7.21;47.86
18527;BME280;9393;42.158;24.748;2023-03-13T04:30:22;100135.56;;;7.11;48.17
18527;BME280;9393;42.158;24.748;2023-03-13T04:33:38;100142.94;;;7.18;47.71
18527;BME280;9393;42.158;24.748;2023-03-13T04:36:53;100166.91;;;7.21;47.86
18527;BME280;9393;42.158;24.748;2023-03-13T04:40:19;100156.94;;;7.15;48.05
18527;BME280;9393;42.158;24.748;2023-03-13T04:43:23;100166.19;;;7.06;48.55
18527;BME280;9393;42.158;24.748;2023-03-13T04:46:39;100166.81;;;7.23;48.03
18527;BME280;9393;42.158;24.748;2023-03-13T04:49:43;100169.09;;;7.15;47.86
18527;BME280;9393;42.158;24.748;2023-03-13T04:53:05;100171.88;;;7.11;48.32
18527;BME280;9393;42.158;24.748;2023-03-13T04:56:38;100181.53;;;6.97;48.47
18527;BME280;9393;42.158;24.748;2023-03-13T05:00:11;100180.69;;;6.84;49.07
18527;BME280;9393;42.158;24.748;2023-03-13T05:03:26;100172.75;;;6.99;48.79
18527;BME280;9393;42.158;24.748;2023-03-13T05:06:41;100190.13;;;6.97;48.99
18527;BME280;9393;42.158;24.748;2023-03-13T05:10:05;100194.63;;;6.95;48.59
18527;BME280;9393;42.158;24.748;2023-03-13T05:13:37;100202.06;;;6.87;49.06
18527;BME280;9393;42.158;24.748;2023-03-13T05:17:17;100197.09;;;6.84;49.35
18527;BME280;9393;42.158;24.748;2023-03-13T05:20:41;100206.41;;;6.74;49.56
18527;BME280;9393;42.158;24.748;2023-03-13T05:24:07;100212.44;;;6.87;49.16
18527;BME280;9393;42.158;24.748;2023-03-13T05:27:18;100216.06;;;6.97;49.27
18527;BME280;9393;42.158;24.748;2023-03-13T05:30:43;100214.91;;;6.76;49.24
18527;BME280;9393;42.158;24.748;2023-03-13T05:34:06;100218.44;;;6.88;49.39
18527;BME280;9393;42.158;24.748;2023-03-13T05:37:49;100228.53;;;7.18;48.82
18527;BME280;9393;42.158;24.748;2023-03-13T05:41:04;100233.63;;;7.32;48.17
18527;BME280;9393;42.158;24.748;2023-03-13T05:44:37;100237.34;;;7.15;48.40
18527;BME280;9393;42.158;24.748;2023-03-13T05:47:54;100239.03;;;7.54;47.81
18527;BME280;9393;42.158;24.748;2023-03-13T05:51:29;100237.66;;;7.36;48.19
18527;BME280;9393;42.158;24.748;2023-03-13T05:54:54;100249.41;;;7.54;47.33
18527;BME280;9393;42.158;24.748;2023-03-13T05:58:13;100249.78;;;7.73;46.87
18527;BME280;9393;42.158;24.748;2023-03-13T06:01:38;100252.81;;;8.03;46.67
18527;BME280;9393;42.158;24.748;2023-03-13T06:04:49;100255.19;;;8.19;45.93
18527;BME280;9393;42.158;24.748;2023-03-13T06:07:54;100254.84;;;8.36;45.66
18527;BME280;9393;42.158;24.748;2023-03-13T06:11:00;100263.13;;;8.65;45.52
18527;BME280;9393;42.158;24.748;2023-03-13T06:14:07;100262.91;;;9.14;44.41
18527;BME280;9393;42.158;24.748;2023-03-13T06:17:19;100259.53;;;9.36;43.79
18527;BME280;9393;42.158;24.748;2023-03-13T06:20:23;100262.97;;;9.70;43.13
18527;BME280;9393;42.158;24.748;2023-03-13T06:23:28;100267.59;;;9.55;42.96
18527;BME280;9393;42.158;24.748;2023-03-13T06:26:34;100266.19;;;9.95;42.34
18527;BME280;9393;42.158;24.748;2023-03-13T06:29:38;100273.84;;;10.08;42.20
18527;BME280;9393;42.158;24.748;2023-03-13T06:32:42;100270.91;;;10.01;41.82
18527;BME280;9393;42.158;24.748;2023-03-13T06:35:47;100273.06;;;9.74;42.13
18527;BME280;9393;42.158;24.748;2023-03-13T06:38:58;100263.19;;;10.11;41.66
18527;BME280;9393;42.158;24.748;2023-03-13T06:42:04;100266.88;;;9.97;42.08
18527;BME280;9393;42.158;24.748;2023-03-13T06:45:09;100256.91;;;10.68;40.87
18527;BME280;9393;42.158;24.748;2023-03-13T06:48:14;100268.28;;;10.67;40.97
18527;BME280;9393;42.158;24.748;2023-03-13T06:51:20;100265.56;;;10.68;40.99
18527;BME280;9393;42.158;24.748;2023-03-13T06:54:24;100264.31;;;11.04;40.67
18527;BME280;9393;42.158;24.748;2023-03-13T06:57:30;100261.94;;;10.80;41.19
18527;BME280;9393;42.158;24.748;2023-03-13T07:00:35;100273.91;;;11.45;39.80
18527;BME280;9393;42.158;24.748;2023-03-13T07:03:41;100266.50;;;11.50;39.90
18527;BME280;9393;42.158;24.748;2023-03-13T07:06:46;100259.28;;;11.93;38.87
18527;BME280;9393;42.158;24.748;2023-03-13T07:09:50;100251.88;;;11.98;38.71
18527;BME280;9393;42.158;24.748;2023-03-13T07:12:56;100262.97;;;12.31;38.23
18527;BME280;9393;42.158;24.748;2023-03-13T07:16:00;100265.50;;;12.51;38.29
18527;BME280;9393;42.158;24.748;2023-03-13T07:19:06;100263.00;;;12.88;37.87
18527;BME280;9393;42.158;24.748;2023-03-13T07:22:10;100269.34;;;12.95;37.88
18527;BME280;9393;42.158;24.748;2023-03-13T07:25:14;100266.16;;;13.11;37.55
18527;BME280;9393;42.158;24.748;2023-03-13T07:28:20;100275.69;;;13.02;37.63
18527;BME280;9393;42.158;24.748;2023-03-13T07:31:25;100259.94;;;13.22;37.05
18527;BME280;9393;42.158;24.748;2023-03-13T07:34:29;100276.38;;;12.85;37.66
18527;BME280;9393;42.158;24.748;2023-03-13T07:37:34;100269.59;;;13.02;37.51
18527;BME280;9393;42.158;24.748;2023-03-13T07:40:38;100273.19;;;13.10;37.75
18527;BME280;9393;42.158;24.748;2023-03-13T07:43:44;100262.16;;;13.26;37.54
18527;BME280;9393;42.158;24.748;2023-03-13T07:46:49;100263.28;;;12.95;37.88
18527;BME280;9393;42.158;24.748;2023-03-13T07:49:53;100260.28;;;13.55;37.40
18527;BME280;9393;42.158;24.748;2023-03-13T07:52:57;100261.72;;;13.77;37.38
18527;BME280;9393;42.158;24.748;2023-03-13T07:56:03;100259.94;;;14.05;36.82
18527;BME280;9393;42.158;24.748;2023-03-13T07:59:10;100259.56;;;13.90;35.90
18527;BME280;9393;42.158;24.748;2023-03-13T08:02:14;100263.63;;;13.85;36.34
18527;BME280;9393;42.158;24.748;2023-03-13T08:05:18;100257.53;;;13.84;36.63
18527;BME280;9393;42.158;24.748;2023-03-13T08:08:23;100258.16;;;14.23;36.06
18527;BME280;9393;42.158;24.748;2023-03-13T08:11:27;100247.56;;;14.42;36.09
18527;BME280;9393;42.158;24.748;2023-03-13T08:14:33;100235.19;;;14.35;35.90
18527;BME280;9393;42.158;24.748;2023-03-13T08:17:38;100226.50;;;14.52;36.07
18527;BME280;9393;42.158;24.748;2023-03-13T08:20:42;100219.53;;;14.78;34.84
18527;BME280;9393;42.158;24.748;2023-03-13T08:23:47;100226.00;;;15.09;34.83
18527;BME280;9393;42.158;24.748;2023-03-13T08:26:52;100221.47;;;15.28;34.70
18527;BME280;9393;42.158;24.748;2023-03-13T08:29:57;100225.56;;;15.22;34.50
18527;BME280;9393;42.158;24.748;2023-03-13T08:33:01;100218.44;;;15.14;34.16
18527;BME280;9393;42.158;24.748;2023-03-13T08:36:10;100223.69;;;15.66;33.91
18527;BME280;9393;42.158;24.748;2023-03-13T08:39:16;100221.34;;;15.89;33.17
18527;BME280;9393;42.158;24.748;2023-03-13T08:42:20;100225.16;;;16.10;32.71
18527;BME280;9393;42.158;24.748;2023-03-13T08:45:26;100227.19;;;16.25;32.19
18527;BME280;9393;42.158;24.748;2023-03-13T08:48:31;100223.88;;;16.14;32.14
18527;BME280;9393;42.158;24.748;2023-03-13T08:51:35;100226.91;;;16.44;32.16
18527;BME280;9393;42.158;24.748;2023-03-13T08:54:40;100223.94;;;16.47;32.45
18527;BME280;9393;42.158;24.748;2023-03-13T08:57:45;100232.22;;;16.60;31.96
18527;BME280;9393;42.158;24.748;2023-03-13T09:00:50;100234.50;;;16.63;31.51
18527;BME280;9393;42.158;24.748;2023-03-13T09:03:55;100227.28;;;16.73;30.75
18527;BME280;9393;42.158;24.748;2023-03-13T09:07:03;100228.16;;;16.15;30.97
18527;BME280;9393;42.158;24.748;2023-03-13T09:10:08;100237.50;;;16.68;30.71
18527;BME280;9393;42.158;24.748;2023-03-13T09:13:12;100233.16;;;16.51;30.65
18527;BME280;9393;42.158;24.748;2023-03-13T09:16:19;100227.59;;;16.94;30.80
18527;BME280;9393;42.158;24.748;2023-03-13T09:19:24;100221.66;;;16.76;30.77
18527;BME280;9393;42.158;24.748;2023-03-13T09:22:28;100222.50;;;17.01;30.59
18527;BME280;9393;42.158;24.748;2023-03-13T09:25:33;100211.56;;;17.28;29.94
18527;BME280;9393;42.158;24.748;2023-03-13T09:28:37;100213.41;;;17.20;29.87
18527;BME280;9393;42.158;24.748;2023-03-13T09:31:45;100212.16;;;17.54;29.63
18527;BME280;9393;42.158;24.748;2023-03-13T09:34:49;100218.97;;;17.33;29.16
18527;BME280;9393;42.158;24.748;2023-03-13T09:37:54;100206.28;;;17.36;29.03
18527;BME280;9393;42.158;24.748;2023-03-13T09:41:03;100208.09;;;18.13;28.49
18527;BME280;9393;42.158;24.748;2023-03-13T09:44:13;100204.31;;;17.85;28.10
18527;BME280;9393;42.158;24.748;2023-03-13T09:47:25;100192.81;;;18.32;27.57
18527;BME280;9393;42.158;24.748;2023-03-13T09:50:34;100191.63;;;17.89;27.91
18527;BME280;9393;42.158;24.748;2023-03-13T09:53:42;100185.16;;;17.91;28.70
18527;BME280;9393;42.158;24.748;2023-03-13T09:57:09;100181.91;;;18.35;27.97
18527;BME280;9393;42.158;24.748;2023-03-13T10:00:18;100176.59;;;17.89;28.01
18527;BME280;9393;42.158;24.748;2023-03-13T10:03:28;100170.75;;;17.71;27.65
18527;BME280;9393;42.158;24.748;2023-03-13T10:06:35;100171.03;;;18.07;27.21
18527;BME280;9393;42.158;24.748;2023-03-13T10:09:42;100169.13;;;17.62;28.19
18527;BME280;9393;42.158;24.748;2023-03-13T10:12:47;100164.09;;;17.36;28.35
18527;BME280;9393;42.158;24.748;2023-03-13T10:15:55;100165.03;;;17.59;27.87
18527;BME280;9393;42.158;24.748;2023-03-13T10:19:11;100163.84;;;18.24;27.04
18527;BME280;9393;42.158;24.748;2023-03-13T10:22:18;100167.59;;;18.06;26.66
18527;BME280;9393;42.158;24.748;2023-03-13T10:25:33;100159.56;;;18.68;25.96
18527;BME280;9393;42.158;24.748;2023-03-13T10:28:37;100149.13;;;18.29;25.90
18527;BME280;9393;42.158;24.748;2023-03-13T10:31:47;100146.34;;;18.83;24.46
18527;BME280;9393;42.158;24.748;2023-03-13T10:34:59;100158.09;;;18.43;23.88
18527;BME280;9393;42.158;24.748;2023-03-13T10:38:08;100145.81;;;18.04;24.05
18527;BME280;9393;42.158;24.748;2023-03-13T10:41:27;100148.88;;;18.16;23.38
18527;BME280;9393;42.158;24.748;2023-03-13T10:44:32;100144.94;;;18.35;22.50
18527;BME280;9393;42.158;24.748;2023-03-13T10:47:36;100140.28;;;17.91;22.75
18527;BME280;9393;42.158;24.748;2023-03-13T10:50:44;100136.09;;;17.74;22.82
18527;BME280;9393;42.158;24.748;2023-03-13T10:53:49;100127.22;;;18.21;23.25
18527;BME280;9393;42.158;24.748;2023-03-13T10:57:20;100123.91;;;18.41;23.30
18527;BME280;9393;42.158;24.748;2023-03-13T11:00:39;100118.53;;;18.57;22.97
18527;BME280;9393;42.158;24.748;2023-03-13T11:03:47;100112.84;;;18.83;22.00
18527;BME280;9393;42.158;24.748;2023-03-13T11:06:58;100108.25;;;18.62;22.65
18527;BME280;9393;42.158;24.748;2023-03-13T11:10:16;100099.25;;;18.49;23.00
18527;BME280;9393;42.158;24.748;2023-03-13T11:13:30;100095.41;;;17.99;22.92
18527;BME280;9393;42.158;24.748;2023-03-13T11:16:47;100088.81;;;17.34;22.81
18527;BME280;9393;42.158;24.748;2023-03-13T11:20:02;100096.91;;;18.16;22.71
18527;BME280;9393;42.158;24.748;2023-03-13T11:23:17;100087.34;;;17.93;22.33
18527;BME280;9393;42.158;24.748;2023-03-13T11:26:28;100085.56;;;18.31;22.92
18527;BME280;9393;42.158;24.748;2023-03-13T11:29:41;100081.59;;;18.12;22.44
18527;BME280;9393;42.158;24.748;2023-03-13T11:32:51;100075.75;;;18.39;21.84
18527;BME280;9393;42.158;24.748;2023-03-13T11:36:01;100073.25;;;18.00;22.42
18527;BME280;9393;42.158;24.748;2023-03-13T11:39:36;100065.28;;;18.46;21.86
18527;BME280;9393;42.158;24.748;2023-03-13T11:42:58;100062.78;;;17.92;21.76
18527;BME280;9393;42.158;24.748;2023-03-13T11:46:37;100055.09;;;18.43;21.20
18527;BME280;9393;42.158;24.748;2023-03-13T11:49:59;100047.31;;;18.27;22.03
18527;BME280;9393;42.158;24.748;2023-03-13T11:56:38;100032.16;;;18.43;22.04
18527;BME280;9393;42.158;24.748;2023-03-13T11:59:49;100030.56;;;18.57;21.86
18527;BME280;9393;42.158;24.748;2023-03-13T12:03:04;100020.25;;;17.87;22.16
18527;BME280;9393;42.158;24.748;2023-03-13T12:06:18;100017.09;;;17.92;22.03
18527;BME280;9393;42.158;24.748;2023-03-13T12:09:33;100006.19;;;17.95;22.13
18527;BME280;9393;42.158;24.748;2023-03-13T12:12:43;100010.81;;;18.30;21.67
18527;BME280;9393;42.158;24.748;2023-03-13T12:15:52;100012.31;;;18.91;21.66
18527;BME280;9393;42.158;24.748;2023-03-13T12:18:58;99999.41;;;18.67;21.18
18527;BME280;9393;42.158;24.748;2023-03-13T12:22:11;99999.91;;;18.33;20.44
18527;BME280;9393;42.158;24.748;2023-03-13T12:25:20;100005.19;;;18.33;20.35
18527;BME280;9393;42.158;24.748;2023-03-13T12:28:34;99997.13;;;18.64;20.53
18527;BME280;9393;42.158;24.748;2023-03-13T12:31:44;100001.03;;;18.01;22.00
18527;BME280;9393;42.158;24.748;2023-03-13T12:34:59;99998.22;;;17.80;21.74
18527;BME280;9393;42.158;24.748;2023-03-13T12:38:11;100007.53;;;17.91;21.76
18527;BME280;9393;42.158;24.748;2023-03-13T12:41:23;99994.38;;;17.68;22.03
18527;BME280;9393;42.158;24.748;2023-03-13T12:44:31;100004.63;;;16.93;22.26
18527;BME280;9393;42.158;24.748;2023-03-13T12:48:05;99997.19;;;17.05;22.39
18527;BME280;9393;42.158;24.748;2023-03-13T12:51:22;100000.28;;;17.39;22.12
18527;BME280;9393;42.158;24.748;2023-03-13T12:54:46;100004.63;;;17.55;21.77
18527;BME280;9393;42.158;24.748;2023-03-13T12:58:15;100000.22;;;17.78;22.11
18527;BME280;9393;42.158;24.748;2023-03-13T13:01:30;100000.97;;;18.24;22.45
18527;BME280;9393;42.158;24.748;2023-03-13T13:04:42;99989.22;;;17.75;22.10
18527;BME280;9393;42.158;24.748;2023-03-13T13:07:52;99996.59;;;17.48;22.96
18527;BME280;9393;42.158;24.748;2023-03-13T13:14:54;99982.72;;;17.54;22.71
18527;BME280;9393;42.158;24.748;2023-03-13T13:18:14;99980.88;;;17.55;22.96
18527;BME280;9393;42.158;24.748;2023-03-13T13:21:21;99985.09;;;17.72;23.33
18527;BME280;9393;42.158;24.748;2023-03-13T13:24:48;99985.50;;;17.61;23.53
18527;BME280;9393;42.158;24.748;2023-03-13T13:27:53;99982.22;;;17.59;23.26
18527;BME280;9393;42.158;24.748;2023-03-13T13:31:00;99969.44;;;17.48;23.20
18527;BME280;9393;42.158;24.748;2023-03-13T13:34:06;99972.69;;;17.58;23.18
18527;BME280;9393;42.158;24.748;2023-03-13T13:37:26;99969.75;;;17.45;22.94
18527;BME280;9393;42.158;24.748;2023-03-13T13:40:31;99965.25;;;17.99;23.16
18527;BME280;9393;42.158;24.748;2023-03-13T13:43:37;99965.50;;;17.66;23.20
18527;BME280;9393;42.158;24.748;2023-03-13T13:46:43;99961.25;;;17.35;23.40
18527;BME280;9393;42.158;24.748;2023-03-13T13:49:54;99957.09;;;17.71;23.09
18527;BME280;9393;42.158;24.748;2023-03-13T13:53:28;99962.34;;;17.71;23.28
18527;BME280;9393;42.158;24.748;2023-03-13T13:56:44;99958.06;;;17.70;22.45
18527;BME280;9393;42.158;24.748;2023-03-13T13:59:53;99948.38;;;17.85;22.87
18527;BME280;9393;42.158;24.748;2023-03-13T14:02:59;99951.25;;;17.76;22.79
18527;BME280;9393;42.158;24.748;2023-03-13T14:06:20;99951.03;;;17.40;22.89
18527;BME280;9393;42.158;24.748;2023-03-13T14:09:33;99947.72;;;17.38;23.12
18527;BME280;9393;42.158;24.748;2023-03-13T14:12:39;99942.06;;;17.26;22.82
18527;BME280;9393;42.158;24.748;2023-03-13T14:15:44;99933.91;;;17.13;22.85
18527;BME280;9393;42.158;24.748;2023-03-13T14:18:49;99934.31;;;17.25;22.62
18527;BME280;9393;42.158;24.748;2023-03-13T14:22:00;99930.13;;;17.07;22.86
18527;BME280;9393;42.158;24.748;2023-03-13T14:25:05;99930.91;;;17.16;23.03
18527;BME280;9393;42.158;24.748;2023-03-13T14:28:20;99929.47;;;17.59;22.73
18527;BME280;9393;42.158;24.748;2023-03-13T14:31:28;99934.50;;;17.46;23.55
18527;BME280;9393;42.158;24.748;2023-03-13T14:34:33;99926.50;;;17.31;23.22
18527;BME280;9393;42.158;24.748;2023-03-13T14:37:41;99922.19;;;16.85;23.49
18527;BME280;9393;42.158;24.748;2023-03-13T14:40:46;99930.19;;;16.99;23.51
18527;BME280;9393;42.158;24.748;2023-03-13T14:43:51;99927.03;;;17.04;23.49
18527;BME280;9393;42.158;24.748;2023-03-13T14:46:57;99927.16;;;17.10;23.40
18527;BME280;9393;42.158;24.748;2023-03-13T14:50:04;99920.53;;;17.14;23.73
18527;BME280;9393;42.158;24.748;2023-03-13T14:53:17;99925.06;;;17.29;23.95
18527;BME280;9393;42.158;24.748;2023-03-13T14:56:30;99927.03;;;17.04;24.12
18527;BME280;9393;42.158;24.748;2023-03-13T14:59:35;99929.19;;;17.00;24.08
18527;BME280;9393;42.158;24.748;2023-03-13T15:02:39;99921.78;;;17.27;24.17
18527;BME280;9393;42.158;24.748;2023-03-13T15:05:45;99922.88;;;17.09;24.08
18527;BME280;9393;42.158;24.748;2023-03-13T15:09:17;99927.63;;;16.44;24.86
18527;BME280;9393;42.158;24.748;2023-03-13T15:12:22;99924.09;;;16.05;25.13
18527;BME280;9393;42.158;24.748;2023-03-13T15:15:26;99931.13;;;16.21;25.04
18527;BME280;9393;42.158;24.748;2023-03-13T15:18:33;99929.19;;;16.06;25.22
18527;BME280;9393;42.158;24.748;2023-03-13T15:21:37;99930.84;;;15.91;24.99
18527;BME280;9393;42.158;24.748;2023-03-13T15:24:44;99925.22;;;16.10;24.99
18527;BME280;9393;42.158;24.748;2023-03-13T15:28:13;99934.50;;;15.82;25.06
18527;BME280;9393;42.158;24.748;2023-03-13T15:31:19;99932.84;;;15.65;25.21
18527;BME280;9393;42.158;24.748;2023-03-13T15:34:25;99929.38;;;15.56;25.20
18527;BME280;9393;42.158;24.748;2023-03-13T15:37:30;99932.50;;;15.52;25.35
18527;BME280;9393;42.158;24.748;2023-03-13T15:40:39;99944.78;;;15.43;25.57
18527;BME280;9393;42.158;24.748;2023-03-13T15:43:43;99940.38;;;15.44;25.54
18527;BME280;9393;42.158;24.748;2023-03-13T15:46:47;99941.69;;;15.56;25.69
18527;BME280;9393;42.158;24.748;2023-03-13T15:49:51;99954.75;;;15.15;25.57
18527;BME280;9393;42.158;24.748;2023-03-13T15:52:56;99945.25;;;15.23;25.96
18527;BME280;9393;42.158;24.748;2023-03-13T15:56:12;99945.47;;;14.87;26.43
18527;BME280;9393;42.158;24.748;2023-03-13T15:59:17;99943.22;;;15.00;26.64
18527;BME280;9393;42.158;24.748;2023-03-13T16:02:22;99950.31;;;14.66;26.66
18527;BME280;9393;42.158;24.748;2023-03-13T16:05:27;99943.72;;;14.54;26.74
18527;BME280;9393;42.158;24.748;2023-03-13T16:08:31;99944.03;;;14.51;27.10
18527;BME280;9393;42.158;24.748;2023-03-13T16:11:39;99944.31;;;14.40;26.75
18527;BME280;9393;42.158;24.748;2023-03-13T16:14:44;99946.47;;;14.44;26.85
18527;BME280;9393;42.158;24.748;2023-03-13T16:17:48;99946.75;;;14.41;27.14
18527;BME280;9393;42.158;24.748;2023-03-13T16:20:53;99941.72;;;14.22;27.08
18527;BME280;9393;42.158;24.748;2023-03-13T16:23:57;99946.81;;;14.24;26.75
18527;BME280;9393;42.158;24.748;2023-03-13T16:27:09;99944.94;;;14.34;26.97
18527;BME280;9393;42.158;24.748;2023-03-13T16:30:16;99946.13;;;14.22;27.44
18527;BME280;9393;42.158;24.748;2023-03-13T16:33:22;99949.78;;;14.29;27.09
18527;BME280;9393;42.158;24.748;2023-03-13T16:36:28;99954.13;;;14.12;26.92
18527;BME280;9393;42.158;24.748;2023-03-13T16:39:32;99954.88;;;14.04;27.10
18527;BME280;9393;42.158;24.748;2023-03-13T16:42:38;99957.94;;;14.00;27.50
18527;BME280;9393;42.158;24.748;2023-03-13T16:45:42;99964.31;;;13.97;27.53
18527;BME280;9393;42.158;24.748;2023-03-13T16:48:49;99963.78;;;14.11;27.74